createdAt,value
2022-10-11T00:02:18.155Z,14.83
2022-10-11T00:04:48.776Z,14.87
2022-10-11T00:07:18.865Z,14.90
2022-10-11T00:09:48.265Z,14.74
2022-10-11T00:12:17.248Z,14.78
2022-10-11T00:14:45.572Z,14.78
2022-10-11T00:17:17.502Z,14.79
2022-10-11T00:20:00.078Z,15.34
2022-10-11T00:22:42.902Z,15.33
2022-10-11T00:25:27.184Z,15.30
2022-10-11T00:28:09.027Z,15.33
2022-10-11T00:30:50.944Z,15.09
2022-10-11T00:33:35.952Z,15.10
2022-10-11T00:36:19.235Z,14.96
2022-10-11T00:39:02.254Z,15.05
2022-10-11T00:41:42.807Z,14.70
2022-10-11T00:44:26.975Z,14.77
2022-10-11T00:47:10.745Z,14.86
2022-10-11T00:49:54.474Z,14.80
2022-10-11T00:52:36.306Z,14.43
2022-10-11T00:55:30.120Z,14.83
2022-10-11T00:58:14.444Z,14.78
2022-10-11T01:00:55.577Z,14.81
2022-10-11T01:03:36.438Z,14.73
2022-10-11T01:06:20.226Z,14.64
2022-10-11T01:09:04.978Z,14.40
2022-10-11T01:11:45.922Z,14.41
2022-10-11T01:14:51.303Z,14.43
2022-10-11T01:17:34.226Z,14.40
2022-10-11T01:20:19.545Z,14.38
2022-10-11T01:23:26.590Z,14.41
2022-10-11T01:26:23.656Z,14.32
2022-10-11T01:29:08.640Z,14.33
2022-10-11T01:31:51.392Z,14.28
2022-10-11T01:34:34.176Z,14.14
2022-10-11T01:37:18.852Z,14.16
2022-10-11T01:40:03.542Z,14.20
2022-10-11T01:42:46.417Z,14.22
2022-10-11T01:45:30.296Z,14.12
2022-10-11T01:48:14.206Z,14.17
2022-10-11T01:50:56.367Z,14.06
2022-10-11T01:53:50.027Z,13.96
2022-10-11T01:56:35.455Z,13.95
2022-10-11T01:59:21.392Z,14.09
2022-10-11T02:02:05.398Z,14.03
2022-10-11T02:04:50.861Z,13.61
2022-10-11T02:07:32.864Z,14.12
2022-10-11T02:10:16.940Z,14.06
2022-10-11T02:13:10.081Z,13.97
2022-10-11T02:15:54.646Z,14.07
2022-10-11T02:18:36.812Z,13.96
2022-10-11T02:21:20.246Z,13.98
2022-10-11T02:24:05.031Z,13.97
2022-10-11T02:26:48.468Z,13.98
2022-10-11T02:29:46.286Z,13.99
2022-10-11T02:32:30.288Z,13.76
2022-10-11T02:35:14.799Z,13.77
2022-10-11T02:37:57.793Z,13.74
2022-10-11T02:40:49.359Z,13.80
2022-10-11T02:43:31.827Z,13.44
2022-10-11T02:46:20.165Z,13.03
2022-10-11T02:49:09.650Z,13.66
2022-10-11T02:51:51.289Z,13.73
2022-10-11T02:54:35.720Z,13.65
2022-10-11T02:57:19.191Z,13.28
2022-10-11T03:00:03.442Z,13.69
2022-10-11T03:02:48.215Z,13.56
2022-10-11T03:05:37.494Z,13.72
2022-10-11T03:08:29.683Z,13.39
2022-10-11T03:11:18.023Z,13.65
2022-10-11T03:14:03.414Z,13.66
2022-10-11T03:16:43.281Z,13.25
2022-10-11T03:19:26.251Z,13.49
2022-10-11T03:22:07.868Z,13.68
2022-10-11T03:24:51.014Z,13.64
2022-10-11T03:27:32.579Z,13.62
2022-10-11T03:30:18.395Z,13.65
2022-10-11T03:33:12.635Z,13.70
2022-10-11T03:35:55.510Z,13.55
2022-10-11T03:38:38.589Z,13.64
2022-10-11T03:41:21.199Z,13.58
2022-10-11T03:44:04.820Z,13.64
2022-10-11T03:46:47.312Z,13.29
2022-10-11T03:49:30.851Z,13.50
2022-10-11T03:52:19.589Z,13.73
2022-10-11T03:55:16.570Z,13.80
2022-10-11T03:57:58.453Z,13.87
2022-10-11T04:00:40.545Z,13.78
2022-10-11T04:03:25.951Z,13.83
2022-10-11T04:06:11.937Z,13.78
2022-10-11T04:08:54.179Z,13.44
2022-10-11T04:11:55.112Z,13.91
2022-10-11T04:14:42.400Z,13.85
2022-10-11T04:17:23.883Z,13.78
2022-10-11T04:20:07.725Z,14.06
2022-10-11T04:22:48.610Z,13.92
2022-10-11T04:25:30.983Z,13.87
2022-10-11T04:28:14.072Z,13.83
2022-10-11T04:30:55.423Z,13.82
2022-10-11T04:33:36.854Z,13.88
2022-10-11T04:36:18.728Z,13.84
2022-10-11T04:39:02.294Z,13.81
2022-10-11T04:41:44.849Z,13.76
2022-10-11T04:44:29.815Z,13.74
2022-10-11T04:47:23.676Z,13.42
2022-10-11T04:50:06.157Z,13.73
2022-10-11T04:52:48.101Z,13.99
2022-10-11T04:55:30.940Z,13.81
2022-10-11T04:58:10.530Z,13.81
2022-10-11T05:00:40.697Z,13.81
2022-10-11T05:03:25.991Z,13.90
2022-10-11T05:06:10.743Z,13.83
2022-10-11T05:08:59.674Z,13.96
2022-10-11T05:11:42.924Z,13.93
2022-10-11T05:14:26.764Z,13.93
2022-10-11T05:17:08.560Z,13.93
2022-10-11T05:19:50.868Z,13.90
2022-10-11T05:22:32.871Z,14.06
2022-10-11T05:25:16.066Z,14.17
2022-10-11T05:27:56.697Z,14.14
2022-10-11T05:30:43.199Z,14.23
2022-10-11T05:33:25.601Z,14.22
2022-10-11T05:36:15.189Z,14.33
2022-10-11T05:39:04.472Z,14.46
2022-10-11T05:41:53.517Z,14.09
2022-10-11T05:44:39.076Z,14.69
2022-10-11T05:47:20.723Z,14.75
2022-10-11T05:50:06.042Z,14.63
2022-10-11T05:52:51.531Z,14.79
2022-10-11T06:00:57.203Z,14.75
2022-10-11T06:03:40.158Z,15.02
2022-10-11T06:06:21.986Z,15.01
2022-10-11T06:09:05.728Z,15.02
2022-10-11T06:12:06.175Z,15.08
2022-10-11T06:14:56.855Z,15.18
2022-10-11T06:17:48.966Z,15.33
2022-10-11T06:20:32.051Z,15.36
2022-10-11T06:23:35.265Z,14.97
2022-10-11T06:26:30.143Z,15.37
2022-10-11T06:29:25.749Z,15.41
2022-10-11T06:32:15.199Z,15.10
2022-10-11T06:35:13.022Z,15.55
2022-10-11T06:38:00.537Z,15.83
2022-10-11T06:41:07.044Z,15.40
2022-10-11T06:44:17.275Z,16.03
2022-10-11T06:47:11.544Z,16.44
2022-10-11T06:50:12.830Z,16.23
2022-10-11T06:53:14.203Z,16.44
2022-10-11T06:56:21.261Z,15.94
2022-10-11T06:59:30.570Z,16.09
2022-10-11T07:02:24.251Z,16.76
2022-10-11T07:05:19.528Z,16.98
2022-10-11T07:08:11.472Z,17.26
2022-10-11T07:10:53.965Z,17.26
2022-10-11T07:13:49.225Z,17.28
2022-10-11T07:16:36.669Z,16.82
2022-10-11T07:19:38.058Z,17.48
2022-10-11T07:23:38.279Z,17.52
2022-10-11T07:37:03.395Z,17.24
2022-10-11T07:40:00.322Z,17.72
2022-10-11T07:43:01.296Z,17.75
2022-10-11T07:45:55.717Z,17.72
2022-10-11T07:48:44.965Z,18.06
2022-10-11T07:51:44.334Z,18.07
2022-10-11T07:54:43.458Z,17.61
2022-10-11T07:57:34.910Z,18.17
2022-10-11T08:00:37.298Z,18.22
2022-10-11T08:03:37.668Z,18.52
2022-10-11T08:06:48.671Z,18.71
2022-10-11T08:09:49.431Z,18.50
2022-10-11T08:12:32.458Z,18.50
2022-10-11T08:15:27.397Z,17.94
2022-10-11T08:18:28.759Z,19.00
2022-10-11T08:21:34.636Z,19.20
2022-10-11T08:24:40.601Z,19.03
2022-10-11T08:28:01.837Z,18.54
2022-10-11T08:31:42.885Z,19.02
2022-10-11T08:46:07.961Z,19.18
2022-10-11T08:52:47.391Z,18.71
2022-10-11T08:55:41.767Z,18.66
2022-10-11T08:58:46.317Z,18.82
2022-10-11T09:02:02.851Z,19.01
2022-10-11T09:05:21.801Z,18.87
2022-10-11T09:08:41.570Z,19.04
2022-10-11T09:15:24.768Z,19.17
2022-10-11T09:18:28.601Z,19.19
2022-10-11T09:29:32.426Z,19.47
2022-10-11T09:33:05.757Z,19.68
2022-10-11T09:36:27.692Z,19.93
2022-10-11T09:43:02.116Z,19.96
2022-10-11T09:51:45.134Z,20.39
2022-10-11T13:13:44.483Z,22.40
2022-10-11T13:21:23.780Z,22.52
2022-10-11T13:28:51.904Z,22.34
2022-10-11T14:02:30.859Z,22.27
2022-10-11T14:13:55.676Z,22.15
2022-10-11T14:25:04.006Z,22.00
2022-10-11T14:28:14.103Z,21.98
2022-10-11T14:31:23.731Z,21.88
2022-10-11T14:34:58.937Z,21.82
2022-10-11T14:38:25.075Z,21.77
2022-10-11T14:45:21.780Z,21.67
2022-10-11T14:48:42.950Z,21.57
2022-10-11T14:58:15.885Z,21.26
2022-10-11T15:01:14.798Z,21.12
2022-10-11T15:03:59.446Z,21.21
2022-10-11T15:06:59.595Z,21.11
2022-10-11T15:10:06.740Z,21.14
2022-10-11T15:12:59.846Z,20.96
2022-10-11T15:15:46.211Z,20.89
2022-10-11T15:18:32.977Z,21.00
2022-10-11T15:21:13.211Z,20.96
2022-10-11T15:26:50.746Z,20.93
2022-10-11T15:29:24.803Z,20.97
2022-10-11T15:32:06.640Z,20.82
2022-10-11T15:34:38.278Z,20.86
2022-10-11T15:37:18.733Z,20.88
2022-10-11T15:40:03.252Z,20.71
2022-10-11T15:42:44.474Z,20.77
2022-10-11T15:45:18.746Z,20.64
2022-10-11T15:48:08.138Z,20.65
2022-10-11T15:50:41.504Z,20.67
2022-10-11T15:53:34.591Z,20.64
2022-10-11T15:56:19.157Z,20.31
2022-10-11T15:58:58.851Z,20.16
2022-10-11T16:01:28.964Z,20.03
2022-10-11T16:04:04.851Z,19.95
2022-10-11T16:06:51.228Z,20.07
2022-10-11T16:09:34.058Z,20.17
2022-10-11T16:12:13.669Z,20.01
2022-10-11T16:14:51.154Z,19.89
2022-10-11T16:20:15.880Z,19.62
2022-10-11T16:22:45.199Z,19.38
2022-10-11T16:25:23.308Z,19.40
2022-10-11T16:27:59.400Z,19.25
2022-10-11T16:30:39.233Z,19.09
2022-10-11T16:33:11.696Z,18.90
2022-10-11T16:35:41.983Z,18.92
2022-10-11T16:38:11.304Z,18.84
2022-10-11T16:40:42.363Z,18.82
2022-10-11T16:43:11.560Z,18.63
2022-10-11T16:45:49.623Z,18.53
2022-10-11T16:48:22.520Z,18.55
2022-10-11T16:50:52.782Z,18.52
2022-10-11T16:53:31.788Z,18.52
2022-10-11T16:56:10.446Z,18.36
2022-10-11T16:58:39.680Z,18.18
2022-10-11T17:01:19.110Z,18.26
2022-10-11T17:03:52.189Z,18.23
2022-10-11T17:06:22.280Z,18.25
2022-10-11T17:08:54.572Z,17.98
2022-10-11T17:11:24.782Z,17.97
2022-10-11T17:13:57.675Z,18.21
2022-10-11T17:16:28.535Z,17.97
2022-10-11T17:18:58.861Z,17.97
2022-10-11T17:21:32.800Z,17.81
2022-10-11T17:24:06.157Z,17.78
2022-10-11T17:26:38.147Z,17.58
2022-10-11T17:29:07.630Z,17.50
2022-10-11T17:31:49.213Z,17.70
2022-10-11T17:34:30.866Z,17.60
2022-10-11T17:37:07.840Z,17.79
2022-10-11T17:39:37.748Z,17.67
2022-10-11T17:42:11.048Z,17.64
2022-10-11T17:44:42.791Z,17.53
2022-10-11T17:47:22.513Z,17.63
2022-10-11T17:49:52.292Z,17.75
2022-10-11T17:52:22.926Z,17.79
2022-10-11T17:54:55.019Z,17.74
2022-10-11T17:57:24.379Z,17.82
2022-10-11T17:59:56.668Z,17.76
2022-10-11T18:02:27.614Z,17.88
2022-10-11T18:05:00.452Z,17.86
2022-10-11T18:07:37.735Z,17.82
2022-10-11T18:10:09.983Z,17.86
2022-10-11T18:12:41.807Z,17.90
2022-10-11T18:15:20.749Z,17.92
2022-10-11T18:18:03.348Z,17.91
2022-10-11T18:20:34.950Z,17.98
2022-10-11T18:23:17.817Z,17.88
2022-10-11T18:25:58.635Z,18.07
2022-10-11T18:28:33.824Z,18.09
2022-10-11T18:31:14.356Z,18.12
2022-10-11T18:34:00.005Z,18.09
2022-10-11T18:36:39.213Z,18.12
2022-10-11T18:39:10.208Z,18.15
2022-10-11T18:41:44.935Z,18.01
2022-10-11T18:44:21.689Z,17.92
2022-10-11T18:46:51.990Z,17.85
2022-10-11T18:49:25.115Z,18.05
2022-10-11T18:52:06.567Z,17.92
2022-10-11T18:54:59.826Z,17.65
2022-10-11T18:57:30.337Z,17.63
2022-10-11T19:00:11.709Z,17.74
2022-10-11T19:03:19.580Z,17.86
2022-10-11T19:06:03.713Z,17.84
2022-10-11T19:08:36.467Z,17.72
2022-10-11T19:11:13.362Z,17.50
2022-10-11T19:13:43.116Z,17.60
2022-10-11T19:16:12.913Z,17.64
2022-10-11T19:18:52.677Z,17.54
2022-10-11T19:21:29.497Z,17.55
2022-10-11T19:24:00.701Z,17.36
2022-10-11T19:26:36.810Z,17.09
2022-10-11T19:29:07.279Z,17.13
2022-10-11T19:31:41.325Z,17.01
2022-10-11T19:34:13.684Z,16.98
2022-10-11T19:36:43.378Z,17.14
2022-10-11T19:39:13.682Z,17.12
2022-10-11T19:41:43.567Z,17.13
2022-10-11T19:44:16.225Z,17.17
2022-10-11T19:46:51.387Z,17.13
2022-10-11T19:49:27.064Z,17.10
2022-10-11T19:52:06.481Z,17.03
2022-10-11T19:54:42.180Z,17.17
2022-10-11T19:57:11.141Z,17.14
2022-10-11T19:59:44.026Z,17.16
2022-10-11T20:02:13.758Z,17.06
2022-10-11T20:04:52.316Z,17.13
2022-10-11T20:07:31.500Z,17.16
2022-10-11T20:10:12.003Z,17.22
2022-10-11T20:13:02.927Z,17.25
2022-10-11T20:15:40.236Z,17.00
2022-10-11T20:18:17.699Z,16.87
2022-10-11T20:20:55.774Z,16.77
2022-10-11T20:23:48.160Z,16.89
2022-10-11T20:30:33.507Z,16.74
2022-10-11T20:33:02.888Z,16.73
2022-10-11T20:35:33.829Z,16.68
2022-10-11T20:38:04.267Z,16.68
2022-10-11T20:40:41.039Z,16.46
2022-10-11T20:43:10.530Z,16.67
2022-10-11T20:45:43.572Z,16.59
2022-10-11T20:48:22.587Z,16.65
2022-10-11T20:50:53.330Z,16.85
2022-10-11T20:54:11.563Z,16.76
2022-10-11T20:57:40.527Z,16.63
2022-10-11T21:00:31.438Z,16.57
2022-10-11T21:03:08.915Z,16.41
2022-10-11T21:05:38.820Z,16.40
2022-10-11T21:08:16.355Z,16.30
2022-10-11T21:11:14.013Z,16.30
2022-10-11T21:13:43.413Z,16.16
2022-10-11T21:16:18.892Z,16.16
2022-10-11T21:19:26.870Z,16.31
2022-10-11T21:22:04.157Z,16.14
2022-10-11T21:24:33.567Z,16.03
2022-10-11T21:27:02.175Z,16.02
2022-10-11T21:29:31.724Z,16.00
2022-10-11T21:32:04.491Z,15.92
2022-10-11T21:34:35.578Z,15.86
2022-10-11T21:37:04.955Z,15.63
2022-10-11T21:39:34.086Z,15.50
2022-10-11T21:42:11.103Z,15.54
2022-10-11T21:44:44.353Z,15.36
2022-10-11T21:47:13.906Z,15.29
2022-10-11T21:49:52.802Z,15.30
2022-10-11T21:52:22.276Z,15.34
2022-10-11T21:54:55.071Z,15.31
2022-10-11T21:57:24.699Z,15.13
2022-10-11T22:00:02.929Z,15.32
2022-10-11T22:02:52.005Z,15.24
2022-10-11T22:05:26.137Z,15.25
2022-10-11T22:07:59.522Z,15.24
2022-10-11T22:10:28.710Z,15.33
2022-10-11T22:12:58.968Z,15.15
2022-10-11T22:15:28.181Z,15.14
2022-10-11T22:18:00.480Z,15.19
2022-10-11T22:20:35.099Z,15.18
2022-10-11T22:23:04.969Z,15.18
2022-10-11T22:25:35.463Z,15.05
2022-10-11T22:28:09.009Z,15.04
2022-10-11T22:30:38.092Z,15.06
2022-10-11T22:33:14.269Z,15.07
2022-10-11T22:35:46.932Z,15.11
2022-10-11T22:38:16.224Z,14.98
2022-10-11T22:40:50.647Z,15.10
2022-10-11T22:43:20.240Z,15.06
2022-10-11T22:45:52.117Z,14.94
2022-10-11T22:48:21.839Z,14.87
2022-10-11T22:50:56.248Z,14.92
2022-10-11T22:53:25.328Z,15.00
2022-10-11T22:55:54.432Z,14.76
2022-10-11T22:58:23.127Z,14.71
2022-10-11T23:00:54.175Z,14.68
2022-10-11T23:03:23.541Z,14.71
2022-10-11T23:05:58.667Z,14.67
2022-10-11T23:08:27.908Z,14.73
2022-10-11T23:11:03.446Z,14.70
2022-10-11T23:13:34.930Z,14.48
2022-10-11T23:16:07.114Z,14.68
2022-10-11T23:18:40.531Z,14.65
2022-10-11T23:21:11.130Z,14.68
2022-10-11T23:23:41.421Z,14.78
2022-10-11T23:26:12.265Z,14.69
2022-10-11T23:28:46.117Z,14.62
2022-10-11T23:31:16.928Z,14.67
2022-10-11T23:33:46.997Z,14.60
2022-10-11T23:36:17.614Z,14.75
2022-10-11T23:38:49.067Z,14.77
2022-10-11T23:41:17.621Z,14.60
2022-10-11T23:43:49.628Z,14.78
2022-10-11T23:46:18.371Z,14.77
2022-10-11T23:48:50.757Z,14.86
2022-10-11T23:51:21.242Z,14.70
2022-10-11T23:53:52.374Z,14.56
2022-10-11T23:56:21.440Z,14.72
2022-10-11T23:58:55.188Z,14.80
